sensor_id;sensor_type;location;lat;lon;timestamp;temperature;humidity
37984;DHT22;64625;50.882;4.376;2022-11-15T00:00:53;12.20;99.90
37984;DHT22;64625;50.882;4.376;2022-11-15T00:03:22;12.20;99.90
37984;DHT22;64625;50.882;4.376;2022-11-15T00:05:49;12.20;99.90
37984;DHT22;64625;50.882;4.376;2022-11-15T00:08:15;12.30;99.90
37984;DHT22;64625;50.882;4.376;2022-11-15T00:10:41;12.30;99.90
37984;DHT22;64625;50.882;4.376;2022-11-15T00:13:09;12.30;99.90
37984;DHT22;64625;50.882;4.376;2022-11-15T00:15:40;12.30;99.90
37984;DHT22;64625;50.882;4.376;2022-11-15T00:18:11;12.30;99.90
37984;DHT22;64625;50.882;4.376;2022-11-15T00:20:37;12.40;99.90
37984;DHT22;64625;50.882;4.376;2022-11-15T00:23:04;12.40;99.90
37984;DHT22;64625;50.882;4.376;2022-11-15T00:25:31;12.40;99.90
37984;DHT22;64625;50.882;4.376;2022-11-15T00:27:57;12.40;99.90
37984;DHT22;64625;50.882;4.376;2022-11-15T00:30:24;12.40;99.90
37984;DHT22;64625;50.882;4.376;2022-11-15T00:32:50;12.40;99.90
37984;DHT22;64625;50.882;4.376;2022-11-15T00:35:15;12.40;99.90
37984;DHT22;64625;50.882;4.376;2022-11-15T00:37:41;12.40;99.90
37984;DHT22;64625;50.882;4.376;2022-11-15T00:40:07;12.50;99.90
37984;DHT22;64625;50.882;4.376;2022-11-15T00:42:33;12.50;99.90
37984;DHT22;64625;50.882;4.376;2022-11-15T00:44:59;12.50;99.90
37984;DHT22;64625;50.882;4.376;2022-11-15T00:47:25;12.50;99.90
37984;DHT22;64625;50.882;4.376;2022-11-15T00:49:51;12.50;99.90
37984;DHT22;64625;50.882;4.376;2022-11-15T00:52:16;12.50;99.90
37984;DHT22;64625;50.882;4.376;2022-11-15T00:54:45;12.50;99.90
37984;DHT22;64625;50.882;4.376;2022-11-15T00:57:11;12.50;99.90
37984;DHT22;64625;50.882;4.376;2022-11-15T00:59:36;12.50;99.90
37984;DHT22;64625;50.882;4.376;2022-11-15T01:02:02;12.50;99.90
37984;DHT22;64625;50.882;4.376;2022-11-15T01:04:28;12.50;99.90
37984;DHT22;64625;50.882;4.376;2022-11-15T01:06:54;12.60;99.90
37984;DHT22;64625;50.882;4.376;2022-11-15T01:09:19;12.60;99.90
37984;DHT22;64625;50.882;4.376;2022-11-15T01:11:45;12.60;99.90
37984;DHT22;64625;50.882;4.376;2022-11-15T01:14:11;12.60;99.90
37984;DHT22;64625;50.882;4.376;2022-11-15T01:16:37;12.60;99.90
37984;DHT22;64625;50.882;4.376;2022-11-15T01:19:03;12.60;99.90
37984;DHT22;64625;50.882;4.376;2022-11-15T01:21:29;12.60;99.90
37984;DHT22;64625;50.882;4.376;2022-11-15T01:23:56;12.60;99.90
37984;DHT22;64625;50.882;4.376;2022-11-15T01:26:23;12.70;99.90
37984;DHT22;64625;50.882;4.376;2022-11-15T01:28:49;12.70;99.90
37984;DHT22;64625;50.882;4.376;2022-11-15T01:31:19;12.70;99.90
37984;DHT22;64625;50.882;4.376;2022-11-15T01:33:45;12.70;99.90
37984;DHT22;64625;50.882;4.376;2022-11-15T01:36:17;12.70;99.90
37984;DHT22;64625;50.882;4.376;2022-11-15T01:38:43;12.70;99.90
37984;DHT22;64625;50.882;4.376;2022-11-15T01:41:17;12.70;99.90
37984;DHT22;64625;50.882;4.376;2022-11-15T01:43:43;12.70;99.90
37984;DHT22;64625;50.882;4.376;2022-11-15T01:48:47;12.70;99.90
37984;DHT22;64625;50.882;4.376;2022-11-15T01:51:15;12.70;99.90
37984;DHT22;64625;50.882;4.376;2022-11-15T01:53:44;12.70;99.90
37984;DHT22;64625;50.882;4.376;2022-11-15T01:56:14;12.70;99.90
37984;DHT22;64625;50.882;4.376;2022-11-15T01:58:43;12.70;99.90
37984;DHT22;64625;50.882;4.376;2022-11-15T02:01:12;12.70;99.90
37984;DHT22;64625;50.882;4.376;2022-11-15T02:04:03;12.70;99.90
37984;DHT22;64625;50.882;4.376;2022-11-15T02:06:32;12.70;99.90
37984;DHT22;64625;50.882;4.376;2022-11-15T02:08:58;12.70;99.90
37984;DHT22;64625;50.882;4.376;2022-11-15T02:11:24;12.70;99.90
37984;DHT22;64625;50.882;4.376;2022-11-15T02:13:50;12.70;99.90
37984;DHT22;64625;50.882;4.376;2022-11-15T02:35:57;12.60;99.90
37984;DHT22;64625;50.882;4.376;2022-11-15T02:41:09;12.60;99.90
37984;DHT22;64625;50.882;4.376;2022-11-15T02:44:02;12.60;99.90
37984;DHT22;64625;50.882;4.376;2022-11-15T02:46:54;12.60;99.90
37984;DHT22;64625;50.882;4.376;2022-11-15T02:49:46;12.60;99.90
37984;DHT22;64625;50.882;4.376;2022-11-15T02:52:17;12.60;99.90
37984;DHT22;64625;50.882;4.376;2022-11-15T02:54:52;12.60;99.90
37984;DHT22;64625;50.882;4.376;2022-11-15T02:57:20;12.60;99.90
37984;DHT22;64625;50.882;4.376;2022-11-15T03:00:10;12.60;99.90
37984;DHT22;64625;50.882;4.376;2022-11-15T03:03:09;12.60;99.90
37984;DHT22;64625;50.882;4.376;2022-11-15T03:08:32;12.70;99.90
37984;DHT22;64625;50.882;4.376;2022-11-15T03:11:15;12.70;99.90
37984;DHT22;64625;50.882;4.376;2022-11-15T03:18:55;12.70;99.90
37984;DHT22;64625;50.882;4.376;2022-11-15T03:21:24;12.70;99.90
37984;DHT22;64625;50.882;4.376;2022-11-15T03:23:51;12.70;99.90
37984;DHT22;64625;50.882;4.376;2022-11-15T03:26:19;12.60;99.90
37984;DHT22;64625;50.882;4.376;2022-11-15T03:29:00;12.60;99.90
37984;DHT22;64625;50.882;4.376;2022-11-15T03:31:34;12.60;99.90
37984;DHT22;64625;50.882;4.376;2022-11-15T03:34:30;12.60;99.90
37984;DHT22;64625;50.882;4.376;2022-11-15T03:36:57;12.60;99.90
37984;DHT22;64625;50.882;4.376;2022-11-15T03:39:23;12.60;99.90
37984;DHT22;64625;50.882;4.376;2022-11-15T03:44:51;12.60;99.90
37984;DHT22;64625;50.882;4.376;2022-11-15T03:47:29;12.60;99.90
37984;DHT22;64625;50.882;4.376;2022-11-15T03:50:05;12.60;99.90
37984;DHT22;64625;50.882;4.376;2022-11-15T03:52:34;12.60;99.90
37984;DHT22;64625;50.882;4.376;2022-11-15T03:55:03;12.60;99.90
37984;DHT22;64625;50.882;4.376;2022-11-15T03:57:29;12.60;99.90
37984;DHT22;64625;50.882;4.376;2022-11-15T03:59:55;12.60;99.90
37984;DHT22;64625;50.882;4.376;2022-11-15T04:02:21;12.60;99.90
37984;DHT22;64625;50.882;4.376;2022-11-15T04:04:46;12.60;99.90
37984;DHT22;64625;50.882;4.376;2022-11-15T04:07:12;12.60;99.90
37984;DHT22;64625;50.882;4.376;2022-11-15T04:09:38;12.60;99.90
37984;DHT22;64625;50.882;4.376;2022-11-15T04:12:24;12.60;99.90
37984;DHT22;64625;50.882;4.376;2022-11-15T04:15:01;12.60;99.90
37984;DHT22;64625;50.882;4.376;2022-11-15T04:17:48;12.60;99.90
37984;DHT22;64625;50.882;4.376;2022-11-15T04:20:15;12.60;99.90
37984;DHT22;64625;50.882;4.376;2022-11-15T04:23:03;12.60;99.90
37984;DHT22;64625;50.882;4.376;2022-11-15T04:25:50;12.60;99.90
37984;DHT22;64625;50.882;4.376;2022-11-15T04:28:17;12.60;99.90
37984;DHT22;64625;50.882;4.376;2022-11-15T04:30:43;12.50;99.90
37984;DHT22;64625;50.882;4.376;2022-11-15T04:33:08;12.60;99.90
37984;DHT22;64625;50.882;4.376;2022-11-15T04:35:34;12.50;99.90
37984;DHT22;64625;50.882;4.376;2022-11-15T04:38:02;12.50;99.90
37984;DHT22;64625;50.882;4.376;2022-11-15T04:40:28;12.50;99.90
37984;DHT22;64625;50.882;4.376;2022-11-15T04:42:54;12.50;99.90
37984;DHT22;64625;50.882;4.376;2022-11-15T04:45:20;12.50;99.90
37984;DHT22;64625;50.882;4.376;2022-11-15T04:47:46;12.50;99.90
37984;DHT22;64625;50.882;4.376;2022-11-15T04:50:13;12.50;99.90
37984;DHT22;64625;50.882;4.376;2022-11-15T04:52:41;12.50;99.90
37984;DHT22;64625;50.882;4.376;2022-11-15T04:55:09;12.50;99.90
37984;DHT22;64625;50.882;4.376;2022-11-15T04:57:35;12.40;99.90
37984;DHT22;64625;50.882;4.376;2022-11-15T05:00:03;12.40;99.90
37984;DHT22;64625;50.882;4.376;2022-11-15T05:02:29;12.40;99.90
37984;DHT22;64625;50.882;4.376;2022-11-15T05:05:15;12.40;99.90
37984;DHT22;64625;50.882;4.376;2022-11-15T05:07:40;12.40;99.90
37984;DHT22;64625;50.882;4.376;2022-11-15T05:10:06;12.40;99.90
37984;DHT22;64625;50.882;4.376;2022-11-15T05:12:32;12.40;99.90
37984;DHT22;64625;50.882;4.376;2022-11-15T05:14:58;12.30;99.90
37984;DHT22;64625;50.882;4.376;2022-11-15T05:17:24;12.30;99.90
37984;DHT22;64625;50.882;4.376;2022-11-15T05:19:49;12.30;99.90
37984;DHT22;64625;50.882;4.376;2022-11-15T05:22:17;12.30;99.90
37984;DHT22;64625;50.882;4.376;2022-11-15T05:24:43;12.30;99.90
37984;DHT22;64625;50.882;4.376;2022-11-15T05:27:09;12.20;99.90
37984;DHT22;64625;50.882;4.376;2022-11-15T05:29:35;12.20;99.90
37984;DHT22;64625;50.882;4.376;2022-11-15T05:32:01;12.20;99.90
37984;DHT22;64625;50.882;4.376;2022-11-15T05:34:29;12.20;99.90
37984;DHT22;64625;50.882;4.376;2022-11-15T05:36:59;12.20;99.90
37984;DHT22;64625;50.882;4.376;2022-11-15T05:39:24;12.10;99.90
37984;DHT22;64625;50.882;4.376;2022-11-15T05:41:54;12.10;99.90
37984;DHT22;64625;50.882;4.376;2022-11-15T05:44:22;12.10;99.90
37984;DHT22;64625;50.882;4.376;2022-11-15T05:46:51;12.10;99.90
37984;DHT22;64625;50.882;4.376;2022-11-15T05:49:26;12.10;99.90
37984;DHT22;64625;50.882;4.376;2022-11-15T05:51:54;12.10;99.90
37984;DHT22;64625;50.882;4.376;2022-11-15T05:54:21;12.00;99.90
37984;DHT22;64625;50.882;4.376;2022-11-15T05:56:47;12.00;99.90
37984;DHT22;64625;50.882;4.376;2022-11-15T05:59:13;12.00;99.90
37984;DHT22;64625;50.882;4.376;2022-11-15T06:01:39;12.00;99.90
37984;DHT22;64625;50.882;4.376;2022-11-15T06:04:06;11.90;99.90
37984;DHT22;64625;50.882;4.376;2022-11-15T06:06:32;11.90;99.90
37984;DHT22;64625;50.882;4.376;2022-11-15T06:08:57;11.90;99.90
37984;DHT22;64625;50.882;4.376;2022-11-15T06:11:25;11.90;99.90
37984;DHT22;64625;50.882;4.376;2022-11-15T06:13:50;11.90;99.90
37984;DHT22;64625;50.882;4.376;2022-11-15T06:16:16;11.90;99.90
37984;DHT22;64625;50.882;4.376;2022-11-15T06:18:43;11.90;99.90
37984;DHT22;64625;50.882;4.376;2022-11-15T06:21:08;11.80;99.90
37984;DHT22;64625;50.882;4.376;2022-11-15T06:23:35;11.80;99.90
37984;DHT22;64625;50.882;4.376;2022-11-15T06:26:03;11.80;99.90
37984;DHT22;64625;50.882;4.376;2022-11-15T06:28:31;11.80;99.90
37984;DHT22;64625;50.882;4.376;2022-11-15T06:31:08;11.80;99.90
37984;DHT22;64625;50.882;4.376;2022-11-15T06:33:34;11.70;99.90
37984;DHT22;64625;50.882;4.376;2022-11-15T06:36:02;11.70;99.90
37984;DHT22;64625;50.882;4.376;2022-11-15T06:38:28;11.70;99.90
37984;DHT22;64625;50.882;4.376;2022-11-15T06:40:54;11.70;99.90
37984;DHT22;64625;50.882;4.376;2022-11-15T06:43:19;11.70;99.90
37984;DHT22;64625;50.882;4.376;2022-11-15T06:45:46;11.70;99.90
37984;DHT22;64625;50.882;4.376;2022-11-15T06:48:14;11.70;99.90
37984;DHT22;64625;50.882;4.376;2022-11-15T06:50:40;11.60;99.90
37984;DHT22;64625;50.882;4.376;2022-11-15T06:53:06;11.60;99.90
37984;DHT22;64625;50.882;4.376;2022-11-15T06:55:31;11.60;99.90
37984;DHT22;64625;50.882;4.376;2022-11-15T06:57:57;11.60;99.90
37984;DHT22;64625;50.882;4.376;2022-11-15T07:00:23;11.60;99.90
37984;DHT22;64625;50.882;4.376;2022-11-15T07:02:49;11.50;99.90
37984;DHT22;64625;50.882;4.376;2022-11-15T07:05:15;11.50;99.90
37984;DHT22;64625;50.882;4.376;2022-11-15T07:07:41;11.50;99.90
37984;DHT22;64625;50.882;4.376;2022-11-15T07:10:08;11.50;99.90
37984;DHT22;64625;50.882;4.376;2022-11-15T07:12:34;11.50;99.90
37984;DHT22;64625;50.882;4.376;2022-11-15T07:15:00;11.50;99.90
37984;DHT22;64625;50.882;4.376;2022-11-15T07:17:26;11.50;99.90
37984;DHT22;64625;50.882;4.376;2022-11-15T07:19:52;11.40;99.90
37984;DHT22;64625;50.882;4.376;2022-11-15T07:22:18;11.40;99.90
37984;DHT22;64625;50.882;4.376;2022-11-15T07:24:43;11.40;99.90
37984;DHT22;64625;50.882;4.376;2022-11-15T07:27:09;11.40;99.90
37984;DHT22;64625;50.882;4.376;2022-11-15T07:29:35;11.40;99.90
37984;DHT22;64625;50.882;4.376;2022-11-15T07:32:01;11.40;99.90
37984;DHT22;64625;50.882;4.376;2022-11-15T07:34:27;11.40;99.90
37984;DHT22;64625;50.882;4.376;2022-11-15T07:36:52;11.40;99.90
37984;DHT22;64625;50.882;4.376;2022-11-15T07:39:18;11.40;99.90
37984;DHT22;64625;50.882;4.376;2022-11-15T07:41:44;11.40;99.90
37984;DHT22;64625;50.882;4.376;2022-11-15T07:44:11;11.40;99.90
37984;DHT22;64625;50.882;4.376;2022-11-15T07:46:37;11.30;99.90
37984;DHT22;64625;50.882;4.376;2022-11-15T07:49:03;11.30;99.90
37984;DHT22;64625;50.882;4.376;2022-11-15T07:51:29;11.30;99.90
37984;DHT22;64625;50.882;4.376;2022-11-15T07:53:55;11.40;99.90
37984;DHT22;64625;50.882;4.376;2022-11-15T07:56:21;11.30;99.90
37984;DHT22;64625;50.882;4.376;2022-11-15T07:58:46;11.40;99.90
37984;DHT22;64625;50.882;4.376;2022-11-15T08:01:13;11.30;99.90
37984;DHT22;64625;50.882;4.376;2022-11-15T08:03:38;11.30;99.90
37984;DHT22;64625;50.882;4.376;2022-11-15T08:06:05;11.30;99.90
37984;DHT22;64625;50.882;4.376;2022-11-15T08:08:31;11.30;99.90
37984;DHT22;64625;50.882;4.376;2022-11-15T08:11:00;11.30;99.90
37984;DHT22;64625;50.882;4.376;2022-11-15T08:13:26;11.30;99.90
37984;DHT22;64625;50.882;4.376;2022-11-15T08:15:52;11.30;99.90
37984;DHT22;64625;50.882;4.376;2022-11-15T08:18:17;11.30;99.90
37984;DHT22;64625;50.882;4.376;2022-11-15T08:20:43;11.30;99.90
37984;DHT22;64625;50.882;4.376;2022-11-15T08:23:12;11.30;99.90
37984;DHT22;64625;50.882;4.376;2022-11-15T08:25:39;11.40;99.90
37984;DHT22;64625;50.882;4.376;2022-11-15T08:28:07;11.30;99.90
37984;DHT22;64625;50.882;4.376;2022-11-15T08:30:38;11.40;99.90
37984;DHT22;64625;50.882;4.376;2022-11-15T08:33:04;11.40;99.90
37984;DHT22;64625;50.882;4.376;2022-11-15T08:35:30;11.40;99.90
37984;DHT22;64625;50.882;4.376;2022-11-15T08:37:57;11.40;99.90
37984;DHT22;64625;50.882;4.376;2022-11-15T08:40:23;11.40;99.90
37984;DHT22;64625;50.882;4.376;2022-11-15T08:42:49;11.40;99.90
37984;DHT22;64625;50.882;4.376;2022-11-15T08:45:16;11.50;99.90
37984;DHT22;64625;50.882;4.376;2022-11-15T08:47:42;11.50;99.90
37984;DHT22;64625;50.882;4.376;2022-11-15T08:50:08;11.50;99.90
37984;DHT22;64625;50.882;4.376;2022-11-15T08:52:34;11.50;99.90
37984;DHT22;64625;50.882;4.376;2022-11-15T08:55:00;11.50;99.90
37984;DHT22;64625;50.882;4.376;2022-11-15T08:57:30;11.50;99.90
37984;DHT22;64625;50.882;4.376;2022-11-15T08:59:56;11.60;99.90
37984;DHT22;64625;50.882;4.376;2022-11-15T09:02:23;11.60;99.90
37984;DHT22;64625;50.882;4.376;2022-11-15T09:04:48;11.60;99.90
37984;DHT22;64625;50.882;4.376;2022-11-15T09:07:14;11.60;99.90
37984;DHT22;64625;50.882;4.376;2022-11-15T09:09:40;11.60;99.90
37984;DHT22;64625;50.882;4.376;2022-11-15T09:12:07;11.70;99.90
37984;DHT22;64625;50.882;4.376;2022-11-15T09:14:34;11.70;99.90
37984;DHT22;64625;50.882;4.376;2022-11-15T09:17:00;11.70;99.90
37984;DHT22;64625;50.882;4.376;2022-11-15T09:19:26;11.80;99.90
37984;DHT22;64625;50.882;4.376;2022-11-15T09:21:53;11.80;99.90
37984;DHT22;64625;50.882;4.376;2022-11-15T09:24:20;11.80;99.90
37984;DHT22;64625;50.882;4.376;2022-11-15T09:26:50;11.80;99.90
37984;DHT22;64625;50.882;4.376;2022-11-15T09:29:17;11.90;99.90
37984;DHT22;64625;50.882;4.376;2022-11-15T09:31:43;11.90;99.90
37984;DHT22;64625;50.882;4.376;2022-11-15T09:34:11;12.00;99.90
37984;DHT22;64625;50.882;4.376;2022-11-15T09:36:37;12.00;99.90
37984;DHT22;64625;50.882;4.376;2022-11-15T09:39:03;12.10;99.90
37984;DHT22;64625;50.882;4.376;2022-11-15T09:41:41;12.10;99.90
37984;DHT22;64625;50.882;4.376;2022-11-15T09:49:30;12.30;99.90
37984;DHT22;64625;50.882;4.376;2022-11-15T09:51:56;12.40;99.90
37984;DHT22;64625;50.882;4.376;2022-11-15T09:54:42;12.40;99.90
37984;DHT22;64625;50.882;4.376;2022-11-15T09:57:12;12.50;99.90
37984;DHT22;64625;50.882;4.376;2022-11-15T10:05:25;12.60;99.90
37984;DHT22;64625;50.882;4.376;2022-11-15T10:10:41;12.80;99.90
37984;DHT22;64625;50.882;4.376;2022-11-15T10:13:21;12.80;99.90
37984;DHT22;64625;50.882;4.376;2022-11-15T10:15:49;12.80;99.90
37984;DHT22;64625;50.882;4.376;2022-11-15T10:20:59;12.90;99.90
37984;DHT22;64625;50.882;4.376;2022-11-15T10:23:27;13.00;99.90
37984;DHT22;64625;50.882;4.376;2022-11-15T10:25:57;13.00;99.90
37984;DHT22;64625;50.882;4.376;2022-11-15T10:28:28;13.10;99.90
37984;DHT22;64625;50.882;4.376;2022-11-15T10:30:57;13.10;99.90
37984;DHT22;64625;50.882;4.376;2022-11-15T10:33:40;13.10;99.90
37984;DHT22;64625;50.882;4.376;2022-11-15T10:38:54;13.20;99.90
37984;DHT22;64625;50.882;4.376;2022-11-15T10:46:45;13.40;99.90
37984;DHT22;64625;50.882;4.376;2022-11-15T10:49:25;13.40;99.90
37984;DHT22;64625;50.882;4.376;2022-11-15T10:51:55;13.40;99.90
37984;DHT22;64625;50.882;4.376;2022-11-15T10:54:34;13.40;99.90
37984;DHT22;64625;50.882;4.376;2022-11-15T10:57:27;13.50;99.90
37984;DHT22;64625;50.882;4.376;2022-11-15T10:59:58;13.50;99.90
37984;DHT22;64625;50.882;4.376;2022-11-15T11:05:04;13.60;99.90
37984;DHT22;64625;50.882;4.376;2022-11-15T11:07:33;13.60;99.90
37984;DHT22;64625;50.882;4.376;2022-11-15T11:10:18;13.70;99.90
37984;DHT22;64625;50.882;4.376;2022-11-15T11:12:45;13.70;99.90
37984;DHT22;64625;50.882;4.376;2022-11-15T11:15:15;13.70;99.90
37984;DHT22;64625;50.882;4.376;2022-11-15T11:45:18;14.10;99.90
37984;DHT22;64625;50.882;4.376;2022-11-15T11:47:57;14.10;99.90
37984;DHT22;64625;50.882;4.376;2022-11-15T11:50:27;14.20;99.90
37984;DHT22;64625;50.882;4.376;2022-11-15T11:55:29;14.20;99.90
37984;DHT22;64625;50.882;4.376;2022-11-15T11:58:26;14.20;99.90
37984;DHT22;64625;50.882;4.376;2022-11-15T12:11:43;14.30;99.90
37984;DHT22;64625;50.882;4.376;2022-11-15T12:14:42;14.30;99.90
37984;DHT22;64625;50.882;4.376;2022-11-15T12:17:10;14.30;99.90
37984;DHT22;64625;50.882;4.376;2022-11-15T12:19:37;14.40;99.90
37984;DHT22;64625;50.882;4.376;2022-11-15T12:25:08;14.40;99.90
37984;DHT22;64625;50.882;4.376;2022-11-15T12:27:45;14.40;99.90
37984;DHT22;64625;50.882;4.376;2022-11-15T12:30:15;14.50;99.90
37984;DHT22;64625;50.882;4.376;2022-11-15T12:33:02;14.40;99.90
37984;DHT22;64625;50.882;4.376;2022-11-15T12:35:42;14.50;99.90
37984;DHT22;64625;50.882;4.376;2022-11-15T12:38:12;14.50;99.90
37984;DHT22;64625;50.882;4.376;2022-11-15T12:41:11;14.50;99.90
37984;DHT22;64625;50.882;4.376;2022-11-15T12:43:46;14.50;99.90
37984;DHT22;64625;50.882;4.376;2022-11-15T12:49:08;14.50;99.90
37984;DHT22;64625;50.882;4.376;2022-11-15T13:07:58;14.60;99.90
37984;DHT22;64625;50.882;4.376;2022-11-15T13:13:01;14.60;99.90
37984;DHT22;64625;50.882;4.376;2022-11-15T13:15:55;14.70;99.90
37984;DHT22;64625;50.882;4.376;2022-11-15T13:18:32;14.70;99.90
37984;DHT22;64625;50.882;4.376;2022-11-15T13:20:59;14.80;99.90
37984;DHT22;64625;50.882;4.376;2022-11-15T13:23:26;14.70;99.90
37984;DHT22;64625;50.882;4.376;2022-11-15T13:26:12;14.80;99.90
37984;DHT22;64625;50.882;4.376;2022-11-15T13:28:44;14.80;99.90
37984;DHT22;64625;50.882;4.376;2022-11-15T13:33:48;14.80;99.90
37984;DHT22;64625;50.882;4.376;2022-11-15T13:36:26;14.80;99.90
37984;DHT22;64625;50.882;4.376;2022-11-15T13:39:29;14.80;99.90
37984;DHT22;64625;50.882;4.376;2022-11-15T13:41:56;14.80;99.90
37984;DHT22;64625;50.882;4.376;2022-11-15T13:44:25;14.80;99.90
37984;DHT22;64625;50.882;4.376;2022-11-15T13:47:14;14.80;99.90
37984;DHT22;64625;50.882;4.376;2022-11-15T13:49:43;14.70;99.90
37984;DHT22;64625;50.882;4.376;2022-11-15T13:52:14;14.80;99.90
37984;DHT22;64625;50.882;4.376;2022-11-15T13:57:28;14.70;99.90
37984;DHT22;64625;50.882;4.376;2022-11-15T13:59:59;14.70;99.90
37984;DHT22;64625;50.882;4.376;2022-11-15T14:02:28;14.80;99.90
37984;DHT22;64625;50.882;4.376;2022-11-15T14:07:33;14.70;99.90
37984;DHT22;64625;50.882;4.376;2022-11-15T14:12:57;14.80;99.90
37984;DHT22;64625;50.882;4.376;2022-11-15T14:15:33;14.80;99.90
37984;DHT22;64625;50.882;4.376;2022-11-15T14:18:00;14.80;99.90
37984;DHT22;64625;50.882;4.376;2022-11-15T14:22:57;14.70;99.90
37984;DHT22;64625;50.882;4.376;2022-11-15T14:25:28;14.80;99.90
37984;DHT22;64625;50.882;4.376;2022-11-15T14:30:42;14.80;99.90
37984;DHT22;64625;50.882;4.376;2022-11-15T14:33:20;14.70;99.90
37984;DHT22;64625;50.882;4.376;2022-11-15T14:35:47;14.70;99.90
37984;DHT22;64625;50.882;4.376;2022-11-15T14:38:14;14.70;99.90
37984;DHT22;64625;50.882;4.376;2022-11-15T14:40:41;14.70;99.90
37984;DHT22;64625;50.882;4.376;2022-11-15T14:43:09;14.70;99.90
37984;DHT22;64625;50.882;4.376;2022-11-15T14:45:37;14.60;99.90
37984;DHT22;64625;50.882;4.376;2022-11-15T14:48:03;14.60;99.90
37984;DHT22;64625;50.882;4.376;2022-11-15T14:50:29;14.60;99.90
37984;DHT22;64625;50.882;4.376;2022-11-15T14:52:55;14.60;99.90
37984;DHT22;64625;50.882;4.376;2022-11-15T14:55:27;14.60;99.90
37984;DHT22;64625;50.882;4.376;2022-11-15T14:57:55;14.50;99.90
37984;DHT22;64625;50.882;4.376;2022-11-15T15:00:21;14.50;99.90
37984;DHT22;64625;50.882;4.376;2022-11-15T15:02:48;14.50;99.90
37984;DHT22;64625;50.882;4.376;2022-11-15T15:05:20;14.40;99.90
37984;DHT22;64625;50.882;4.376;2022-11-15T15:07:46;14.40;99.90
37984;DHT22;64625;50.882;4.376;2022-11-15T15:10:14;14.30;99.90
37984;DHT22;64625;50.882;4.376;2022-11-15T15:12:41;14.20;99.90
37984;DHT22;64625;50.882;4.376;2022-11-15T15:15:17;14.20;99.90
37984;DHT22;64625;50.882;4.376;2022-11-15T15:17:43;14.10;99.90
37984;DHT22;64625;50.882;4.376;2022-11-15T15:20:10;14.10;99.90
37984;DHT22;64625;50.882;4.376;2022-11-15T15:22:37;14.00;99.90
37984;DHT22;64625;50.882;4.376;2022-11-15T15:25:26;14.00;99.90
37984;DHT22;64625;50.882;4.376;2022-11-15T15:27:53;13.90;99.90
37984;DHT22;64625;50.882;4.376;2022-11-15T15:30:20;13.90;99.90
37984;DHT22;64625;50.882;4.376;2022-11-15T15:32:46;13.90;99.90
37984;DHT22;64625;50.882;4.376;2022-11-15T15:35:14;13.90;99.90
37984;DHT22;64625;50.882;4.376;2022-11-15T15:37:41;13.80;99.90
37984;DHT22;64625;50.882;4.376;2022-11-15T15:40:19;13.80;99.90
37984;DHT22;64625;50.882;4.376;2022-11-15T15:42:46;13.80;99.90
37984;DHT22;64625;50.882;4.376;2022-11-15T15:45:13;13.80;99.90
37984;DHT22;64625;50.882;4.376;2022-11-15T15:47:39;13.70;99.90
37984;DHT22;64625;50.882;4.376;2022-11-15T15:50:22;13.70;99.90
37984;DHT22;64625;50.882;4.376;2022-11-15T15:52:54;13.60;99.90
37984;DHT22;64625;50.882;4.376;2022-11-15T15:55:20;13.60;99.90
37984;DHT22;64625;50.882;4.376;2022-11-15T15:57:46;13.60;99.90
37984;DHT22;64625;50.882;4.376;2022-11-15T16:00:13;13.60;99.90
37984;DHT22;64625;50.882;4.376;2022-11-15T16:02:40;13.50;99.90
37984;DHT22;64625;50.882;4.376;2022-11-15T16:05:07;13.50;99.90
37984;DHT22;64625;50.882;4.376;2022-11-15T16:07:33;13.50;99.90
37984;DHT22;64625;50.882;4.376;2022-11-15T16:09:58;13.50;99.90
37984;DHT22;64625;50.882;4.376;2022-11-15T16:14:55;13.40;99.90
37984;DHT22;64625;50.882;4.376;2022-11-15T16:17:24;13.40;99.90
37984;DHT22;64625;50.882;4.376;2022-11-15T16:19:50;13.40;99.90
37984;DHT22;64625;50.882;4.376;2022-11-15T16:22:16;13.40;99.90
37984;DHT22;64625;50.882;4.376;2022-11-15T16:24:42;13.40;99.90
37984;DHT22;64625;50.882;4.376;2022-11-15T16:27:26;13.40;99.90
37984;DHT22;64625;50.882;4.376;2022-11-15T16:29:51;13.30;99.90
37984;DHT22;64625;50.882;4.376;2022-11-15T16:32:17;13.30;99.90
37984;DHT22;64625;50.882;4.376;2022-11-15T16:34:43;13.30;99.90
37984;DHT22;64625;50.882;4.376;2022-11-15T16:37:35;13.30;99.90
37984;DHT22;64625;50.882;4.376;2022-11-15T16:40:01;13.20;99.90
37984;DHT22;64625;50.882;4.376;2022-11-15T16:42:27;13.20;99.90
37984;DHT22;64625;50.882;4.376;2022-11-15T16:44:53;13.20;99.90
37984;DHT22;64625;50.882;4.376;2022-11-15T16:47:19;13.20;99.90
37984;DHT22;64625;50.882;4.376;2022-11-15T16:49:45;13.20;99.90
37984;DHT22;64625;50.882;4.376;2022-11-15T16:52:11;13.20;99.90
37984;DHT22;64625;50.882;4.376;2022-11-15T16:54:37;13.20;99.90
37984;DHT22;64625;50.882;4.376;2022-11-15T16:57:03;13.20;99.90
37984;DHT22;64625;50.882;4.376;2022-11-15T16:59:29;13.20;99.90
37984;DHT22;64625;50.882;4.376;2022-11-15T17:01:57;13.20;99.90
37984;DHT22;64625;50.882;4.376;2022-11-15T17:04:23;13.20;99.90
37984;DHT22;64625;50.882;4.376;2022-11-15T17:06:49;13.20;99.90
37984;DHT22;64625;50.882;4.376;2022-11-15T17:09:20;13.20;99.90
37984;DHT22;64625;50.882;4.376;2022-11-15T17:11:49;13.10;99.90
37984;DHT22;64625;50.882;4.376;2022-11-15T17:14:15;13.10;99.90
37984;DHT22;64625;50.882;4.376;2022-11-15T17:16:41;13.10;99.90
37984;DHT22;64625;50.882;4.376;2022-11-15T17:19:17;13.10;99.90
37984;DHT22;64625;50.882;4.376;2022-11-15T17:21:43;13.10;99.90
37984;DHT22;64625;50.882;4.376;2022-11-15T17:24:10;13.10;99.90
37984;DHT22;64625;50.882;4.376;2022-11-15T17:26:37;13.10;99.90
37984;DHT22;64625;50.882;4.376;2022-11-15T17:29:04;13.10;99.90
37984;DHT22;64625;50.882;4.376;2022-11-15T17:31:36;13.10;99.90
37984;DHT22;64625;50.882;4.376;2022-11-15T17:34:03;13.10;99.90
37984;DHT22;64625;50.882;4.376;2022-11-15T17:36:30;13.10;99.90
37984;DHT22;64625;50.882;4.376;2022-11-15T17:38:56;13.10;99.90
37984;DHT22;64625;50.882;4.376;2022-11-15T17:41:22;13.10;99.90
37984;DHT22;64625;50.882;4.376;2022-11-15T17:43:48;13.10;99.90
37984;DHT22;64625;50.882;4.376;2022-11-15T17:46:16;13.10;99.90
37984;DHT22;64625;50.882;4.376;2022-11-15T17:48:43;13.10;99.90
37984;DHT22;64625;50.882;4.376;2022-11-15T17:51:12;13.00;99.90
37984;DHT22;64625;50.882;4.376;2022-11-15T17:53:46;13.00;99.90
37984;DHT22;64625;50.882;4.376;2022-11-15T17:56:20;13.00;99.90
37984;DHT22;64625;50.882;4.376;2022-11-15T17:58:48;13.00;99.90
37984;DHT22;64625;50.882;4.376;2022-11-15T18:03:40;13.00;99.90
37984;DHT22;64625;50.882;4.376;2022-11-15T18:06:07;13.00;99.90
37984;DHT22;64625;50.882;4.376;2022-11-15T18:08:36;13.00;99.90
37984;DHT22;64625;50.882;4.376;2022-11-15T18:11:44;13.00;99.90
37984;DHT22;64625;50.882;4.376;2022-11-15T18:13:57;13.00;99.90